Time;durP1;ratioP1;P1;durP2;ratioP2;P2;SDS_P1;SDS_P2;PMS_P1;PMS_P2;Temp;Humidity;BMP_temperature;BMP_pressure;BME280_temperature;BME280_humidity;BME280_pressure;Samples;Min_cycle;Max_cycle;Signal;HPM_P1;HPM_P2
2022/06/23 00:02:08;;;;;;;11.65;7.60;;;15.00;99.90;;;;;;4963969;28;20126;-66
2022/06/23 00:04:41;;;;;;;9.10;8.20;;;15.10;99.90;;;;;;4963996;28;20421;-67
2022/06/23 00:07:19;;;;;;;13.10;7.57;;;15.10;99.90;;;;;;4965104;28;20496;-67
2022/06/23 00:09:46;;;;;;;11.27;8.10;;;15.20;99.90;;;;;;4961575;28;20050;-67
2022/06/23 00:12:26;;;;;;;11.05;8.70;;;15.20;99.90;;;;;;4962842;28;20043;-68
2022/06/23 00:15:04;;;;;;;10.80;9.02;;;15.30;99.90;;;;;;4967691;28;20047;-66
2022/06/23 00:17:34;;;;;;;11.13;8.05;;;15.30;99.90;;;;;;4968861;28;20142;-67
2022/06/23 00:20:05;;;;;;;;;;;15.30;99.90;;;;;;4969977;28;20438;-66
2022/06/23 00:22:32;;;;;;;9.65;8.65;;;15.30;99.90;;;;;;4966414;28;20308;-66
2022/06/23 00:25:04;;;;;;;12.05;8.95;;;15.40;99.90;;;;;;4969946;28;20074;-67
2022/06/23 00:27:40;;;;;;;18.70;9.95;;;15.40;99.90;;;;;;4968285;28;20055;-68
2022/06/23 00:30:21;;;;;;;9.07;8.07;;;15.40;99.90;;;;;;4935456;28;20789;-66
2022/06/23 00:32:48;;;;;;;9.65;7.68;;;15.40;99.90;;;;;;4968041;28;20055;-68
2022/06/23 00:35:18;;;;;;;14.63;9.07;;;15.50;99.90;;;;;;4970398;28;20046;-66
2022/06/23 00:37:52;;;;;;;9.90;8.70;;;15.40;99.90;;;;;;4968635;28;20077;-66
2022/06/23 00:40:22;;;;;;;10.65;7.65;;;15.40;99.90;;;;;;4968112;28;20126;-70
2022/06/23 00:43:00;;;;;;;12.45;8.20;;;15.40;99.90;;;;;;4969946;28;20074;-67
2022/06/23 00:45:40;;;;;;;15.02;11.07;;;15.40;99.90;;;;;;4970166;28;20039;-68
2022/06/23 00:48:32;;;;;;;11.98;9.23;;;15.50;99.90;;;;;;4968265;28;20136;-70
2022/06/23 00:51:10;;;;;;;10.35;8.90;;;15.50;99.90;;;;;;4970655;28;20055;-66
2022/06/23 00:53:46;;;;;;;10.77;7.57;;;15.50;99.90;;;;;;4968941;28;20081;-66
2022/06/23 00:56:38;;;;;;;9.15;7.57;;;15.50;99.90;;;;;;4965380;28;20186;-70
2022/06/23 00:59:23;;;;;;;9.90;8.70;;;15.50;99.90;;;;;;4950382;28;20381;-67
2022/06/23 01:01:57;;;;;;;9.63;8.55;;;15.40;99.90;;;;;;4968788;28;20062;-66
2022/06/23 01:04:39;;;;;;;12.85;8.77;;;15.40;99.90;;;;;;4970060;28;20122;-66
2022/06/23 01:07:43;;;;;;;9.80;7.47;;;15.40;99.90;;;;;;4964332;28;20195;-68
2022/06/23 01:10:16;;;;;;;9.23;7.70;;;15.50;99.90;;;;;;4963323;28;20050;-65
2022/06/23 01:12:55;;;;;;;8.55;7.10;;;15.40;99.90;;;;;;4969970;28;20118;-71
2022/06/23 01:15:35;;;;;;;9.80;6.10;;;15.50;99.90;;;;;;4970502;28;20517;-66
2022/06/23 01:18:05;;;;;;;;;;;15.50;99.90;;;;;;4968227;28;20051;-67
2022/06/23 01:21:03;;;;;;;12.23;7.20;;;15.50;99.90;;;;;;4969857;28;19926;-65
2022/06/23 01:23:50;;;;;;;8.52;6.60;;;15.50;99.90;;;;;;4967748;28;20118;-65
2022/06/23 01:26:26;;;;;;;8.88;5.40;;;15.60;99.90;;;;;;4968427;28;20054;-68
2022/06/23 01:29:12;;;;;;;6.60;5.03;;;15.60;99.90;;;;;;4960152;28;20126;-66
2022/06/23 01:31:53;;;;;;;11.10;6.45;;;15.60;99.90;;;;;;4970694;28;20054;-66
2022/06/23 01:34:30;;;;;;;6.70;4.40;;;15.60;99.90;;;;;;4967357;28;20051;-66
2022/06/23 01:37:12;;;;;;;8.35;4.45;;;15.70;99.90;;;;;;4962481;28;20071;-68
2022/06/23 01:40:05;;;;;;;6.47;5.65;;;15.70;99.90;;;;;;4968458;28;20182;-66
2022/06/23 01:42:58;;;;;;;5.63;4.78;;;15.60;99.90;;;;;;4965325;28;20063;-66
2022/06/23 01:45:42;;;;;;;7.43;4.70;;;15.60;99.90;;;;;;4967883;28;20106;-70
2022/06/23 01:48:16;;;;;;;6.00;3.58;;;15.60;99.90;;;;;;4967605;28;20047;-72
2022/06/23 01:50:50;;;;;;;4.88;4.47;;;15.60;99.90;;;;;;4965244;28;20123;-73
2022/06/23 01:53:17;;;;;;;9.73;4.90;;;15.60;99.90;;;;;;4968793;28;20146;-66
2022/06/23 01:56:14;;;;;;;4.68;4.28;;;15.60;99.90;;;;;;4968061;28;20046;-69
2022/06/23 01:58:59;;;;;;;4.03;3.55;;;15.60;99.90;;;;;;4968920;28;20537;-68
2022/06/23 02:01:41;;;;;;;5.55;4.20;;;15.60;99.90;;;;;;4968981;28;20043;-67
2022/06/23 02:04:21;;;;;;;4.95;4.45;;;15.60;99.90;;;;;;4967936;28;20065;-65
2022/06/23 02:06:55;;;;;;;4.30;3.90;;;15.60;99.90;;;;;;4968789;28;20062;-67
2022/06/23 02:09:45;;;;;;;4.70;3.97;;;15.60;99.90;;;;;;4968745;28;20522;-66
2022/06/23 02:12:34;;;;;;;5.37;4.53;;;15.60;99.90;;;;;;4967246;28;20051;-69
2022/06/23 02:15:40;;;;;;;4.40;3.72;;;15.60;99.90;;;;;;4969022;28;20038;-66
2022/06/23 02:18:52;;;;;;;4.10;3.70;;;15.60;99.90;;;;;;4962257;28;20422;-66
2022/06/23 02:21:48;;;;;;;4.30;3.90;;;15.60;99.90;;;;;;4924013;28;20047;-67
2022/06/23 02:24:53;;;;;;;5.78;4.00;;;15.70;99.90;;;;;;4964007;28;20457;-66
2022/06/23 02:27:42;;;;;;;5.20;3.47;;;15.70;99.90;;;;;;4960557;28;20142;-66
2022/06/23 02:30:39;;;;;;;6.10;4.22;;;15.70;99.90;;;;;;4963302;28;20480;-65
2022/06/23 02:33:34;;;;;;;3.92;3.63;;;15.80;99.90;;;;;;4959848;28;20071;-65
2022/06/23 02:36:29;;;;;;;5.30;3.63;;;15.80;99.90;;;;;;4964845;28;20061;-68
2022/06/23 02:39:05;;;;;;;3.70;2.95;;;15.80;99.90;;;;;;4969554;28;20050;-65
2022/06/23 02:41:46;;;;;;;5.53;3.50;;;15.80;99.90;;;;;;4967219;28;20046;-66
2022/06/23 02:44:47;;;;;;;2.58;2.38;;;15.90;99.90;;;;;;4967186;28;20185;-66
2022/06/23 02:48:02;;;;;;;2.97;2.40;;;15.80;99.90;;;;;;4968776;28;20050;-70
2022/06/23 02:50:53;;;;;;;3.50;2.90;;;15.80;99.90;;;;;;4924547;28;20684;-66
2022/06/23 02:53:26;;;;;;;3.35;2.42;;;15.80;99.90;;;;;;4968748;28;20213;-66
2022/06/23 02:56:02;;;;;;;3.83;2.85;;;15.90;99.90;;;;;;4960512;28;20046;-70
2022/06/23 02:58:40;;;;;;;3.88;2.30;;;15.90;99.90;;;;;;4968678;28;20095;-66
2022/06/23 03:01:35;;;;;;;3.15;2.80;;;15.90;99.90;;;;;;4963674;28;20107;-68
2022/06/23 03:04:18;;;;;;;2.70;2.47;;;15.90;99.90;;;;;;4963366;28;20118;-66
2022/06/23 03:06:59;;;;;;;4.63;4.25;;;16.00;99.90;;;;;;4967624;28;20047;-70
2022/06/23 03:09:33;;;;;;;3.40;3.13;;;16.00;99.90;;;;;;4967387;28;20054;-68
2022/06/23 03:12:12;;;;;;;3.58;2.75;;;16.00;99.90;;;;;;4962725;28;20051;-66
2022/06/23 03:14:52;;;;;;;5.15;3.03;;;15.90;99.90;;;;;;4967156;28;20520;-66
2022/06/23 03:17:26;;;;;;;3.65;2.78;;;16.00;99.90;;;;;;4967565;28;20087;-66
2022/06/23 03:20:22;;;;;;;6.15;3.22;;;16.00;99.90;;;;;;4959639;28;20050;-66
2022/06/23 03:22:55;;;;;;;3.45;3.15;;;16.00;99.90;;;;;;4968757;28;20054;-66
2022/06/23 03:25:22;;;;;;;4.97;4.03;;;15.90;99.90;;;;;;4968124;28;20389;-70
2022/06/23 03:27:58;;;;;;;4.90;3.83;;;16.00;99.90;;;;;;4966638;28;20046;-66
2022/06/23 03:31:17;;;;;;;3.40;2.83;;;16.00;99.90;;;;;;4967919;28;20138;-69
2022/06/23 03:33:46;;;;;;;3.50;2.78;;;16.00;99.90;;;;;;4957442;28;20069;-70
2022/06/23 03:36:56;;;;;;;4.47;3.33;;;16.10;99.90;;;;;;4967594;28;20101;-69
2022/06/23 03:42:45;;;;;;;3.30;3.00;;;16.20;99.90;;;;;;4963933;28;20078;-66
2022/06/23 03:45:35;;;;;;;2.63;2.42;;;16.20;99.90;;;;;;4964913;28;20050;-67
2022/06/23 03:48:25;;;;;;;2.60;2.30;;;16.20;99.90;;;;;;4965024;28;20055;-67
2022/06/23 03:51:23;;;;;;;4.53;2.30;;;16.20;99.90;;;;;;4951137;28;20613;-67
2022/06/23 03:53:59;;;;;;;8.57;3.25;;;16.30;99.90;;;;;;4962518;28;20055;-65
2022/06/23 03:56:31;;;;;;;2.80;2.60;;;16.30;99.90;;;;;;4966620;28;20062;-68
2022/06/23 03:59:01;;;;;;;2.85;2.65;;;16.30;99.90;;;;;;4960568;28;20713;-69
2022/06/23 04:01:44;;;;;;;3.95;2.33;;;16.30;99.90;;;;;;4964050;28;20666;-69
2022/06/23 04:04:20;;;;;;;2.55;2.35;;;16.40;99.90;;;;;;4964770;28;20074;-67
2022/06/23 04:06:52;;;;;;;3.33;2.38;;;16.50;99.90;;;;;;4967773;28;20146;-65
2022/06/23 04:09:37;;;;;;;3.22;2.60;;;16.50;99.90;;;;;;4967618;28;20177;-69
2022/06/23 04:12:10;;;;;;;2.88;2.58;;;16.50;99.90;;;;;;4960978;28;20046;-73
2022/06/23 04:14:53;;;;;;;1.98;1.88;;;16.50;99.90;;;;;;4967355;28;20050;-67
2022/06/23 04:17:43;;;;;;;12.82;3.00;;;16.60;99.90;;;;;;4967571;28;20474;-66
2022/06/23 04:20:18;;;;;;;4.15;2.60;;;16.60;99.90;;;;;;4965630;28;20545;-66
2022/06/23 04:23:13;;;;;;;3.38;2.53;;;16.60;99.90;;;;;;4959583;28;20055;-66
2022/06/23 04:25:49;;;;;;;3.20;2.65;;;16.70;99.90;;;;;;4966895;28;20074;-67
2022/06/23 04:28:31;;;;;;;2.65;2.45;;;16.70;99.90;;;;;;4960486;28;20582;-67
2022/06/23 04:31:01;;;;;;;2.33;2.10;;;16.70;99.90;;;;;;4966412;28;20055;-67
2022/06/23 04:33:29;;;;;;;3.25;2.17;;;16.70;99.90;;;;;;4964309;28;20418;-66
2022/06/23 04:36:00;;;;;;;4.72;2.45;;;16.70;99.90;;;;;;4965316;28;20059;-67
2022/06/23 04:38:38;;;;;;;5.22;1.88;;;16.70;99.90;;;;;;4966595;28;20161;-67
2022/06/23 04:41:10;;;;;;;4.60;2.67;;;16.80;99.90;;;;;;4963263;28;20169;-66
2022/06/23 04:44:02;;;;;;;2.20;2.10;;;16.80;99.90;;;;;;4967648;28;20845;-65
2022/06/23 04:46:43;;;;;;;2.88;2.25;;;16.80;99.90;;;;;;4959951;28;20150;-65
2022/06/23 04:49:51;;;;;;;2.35;2.13;;;16.90;99.90;;;;;;4967159;28;20059;-65
2022/06/23 04:52:24;;;;;;;2.67;2.47;;;16.90;99.90;;;;;;4965622;28;20111;-67
2022/06/23 04:55:12;;;;;;;1.90;1.80;;;17.00;99.90;;;;;;4948999;28;20046;-68
2022/06/23 04:58:14;;;;;;;2.13;1.92;;;17.00;99.90;;;;;;4966971;28;20203;-67
2022/06/23 05:00:52;;;;;;;5.40;2.35;;;17.00;99.90;;;;;;4950268;28;20051;-66
2022/06/23 05:03:37;;;;;;;5.18;2.05;;;17.10;99.90;;;;;;4961343;28;20051;-65
2022/06/23 05:06:27;;;;;;;2.80;2.17;;;17.10;99.90;;;;;;4967695;28;20039;-67
2022/06/23 05:09:01;;;;;;;3.05;2.70;;;17.10;99.90;;;;;;4966399;28;20054;-66
2022/06/23 05:11:49;;;;;;;2.45;2.25;;;17.00;99.90;;;;;;4953586;28;20358;-66
2022/06/23 05:14:43;;;;;;;4.70;2.28;;;17.00;99.90;;;;;;4968457;28;20054;-65
2022/06/23 05:17:16;;;;;;;2.58;2.38;;;16.90;99.90;;;;;;4967770;28;20060;-66
2022/06/23 05:19:43;;;;;;;5.30;4.18;;;16.80;99.90;;;;;;4968402;28;20142;-69
2022/06/23 05:22:19;;;;;;;3.22;2.92;;;16.80;99.90;;;;;;4970201;28;20414;-66
2022/06/23 05:24:47;;;;;;;3.17;2.97;;;16.70;99.90;;;;;;4966167;28;20366;-69
2022/06/23 05:27:27;;;;;;;3.22;2.92;;;16.70;99.90;;;;;;4969841;28;20556;-66
2022/06/23 05:30:07;;;;;;;;;;;16.70;99.90;;;;;;4966788;28;20058;-66
2022/06/23 05:32:57;;;;;;;3.17;2.90;;;16.70;99.90;;;;;;4966661;28;20053;-70
2022/06/23 05:35:24;;;;;;;4.22;3.38;;;16.70;99.90;;;;;;4968471;28;20043;-67
2022/06/23 05:37:53;;;;;;;3.38;3.08;;;16.70;99.90;;;;;;4968436;28;20118;-66
2022/06/23 05:40:54;;;;;;;3.58;3.15;;;16.70;99.90;;;;;;4969908;28;20043;-66
2022/06/23 05:43:22;;;;;;;2.90;2.65;;;16.70;99.90;;;;;;4970537;28;20043;-67
2022/06/23 05:45:56;;;;;;;3.22;2.92;;;16.70;99.90;;;;;;4964980;28;20051;-67
2022/06/23 05:48:30;;;;;;;2.70;2.42;;;16.70;99.90;;;;;;4965771;28;20055;-68
2022/06/23 05:51:22;;;;;;;2.75;2.55;;;16.70;99.90;;;;;;4969083;28;20154;-65
2022/06/23 05:54:10;;;;;;;3.85;2.92;;;16.70;99.90;;;;;;4966951;28;20146;-66
2022/06/23 05:56:50;;;;;;;3.50;3.20;;;16.80;99.90;;;;;;4966882;28;20844;-65
2022/06/23 05:59:49;;;;;;;4.15;3.78;;;16.80;99.90;;;;;;4968989;28;20078;-70
2022/06/23 06:02:24;;;;;;;3.90;3.25;;;16.80;99.90;;;;;;4955738;28;20434;-68
2022/06/23 06:04:55;;;;;;;3.55;3.20;;;16.80;99.90;;;;;;4964382;28;20110;-68
2022/06/23 06:07:29;;;;;;;4.57;4.18;;;16.80;99.90;;;;;;4969453;28;20414;-70
2022/06/23 06:09:56;;;;;;;4.57;3.50;;;16.80;99.90;;;;;;4965747;28;20110;-69
2022/06/23 06:12:36;;;;;;;5.10;3.78;;;16.80;99.90;;;;;;4968438;28;20437;-70
2022/06/23 06:15:22;;;;;;;3.97;3.22;;;16.90;99.90;;;;;;4964662;28;20765;-73
2022/06/23 06:17:52;;;;;;;5.35;3.30;;;16.90;99.90;;;;;;4965866;28;20122;-73
2022/06/23 06:20:24;;;;;;;4.72;2.97;;;16.90;99.90;;;;;;4969292;28;20039;-76
2022/06/23 06:23:02;;;;;;;3.92;3.30;;;17.00;99.90;;;;;;4966896;28;20062;-69
2022/06/23 06:25:43;;;;;;;3.80;3.10;;;17.00;99.90;;;;;;4965574;28;20047;-68
2022/06/23 06:28:34;;;;;;;4.07;3.67;;;16.90;99.90;;;;;;4966527;28;20050;-71
2022/06/23 06:31:09;;;;;;;6.18;3.28;;;16.90;99.90;;;;;;4965586;28;20054;-68
2022/06/23 06:33:42;;;;;;;3.92;3.17;;;17.00;99.90;;;;;;4964973;28;20111;-69
2022/06/23 06:36:32;;;;;;;4.90;3.50;;;17.20;99.90;;;;;;4966212;28;20047;-68
2022/06/23 06:39:06;;;;;;;3.22;3.00;;;17.20;99.90;;;;;;4966619;28;20102;-68
2022/06/23 06:41:33;;;;;;;4.47;2.83;;;17.20;99.90;;;;;;4967141;28;20522;-71
2022/06/23 06:44:02;;;;;;;4.72;3.10;;;17.30;99.90;;;;;;4966466;28;20099;-74
2022/06/23 06:46:30;;;;;;;2.83;2.63;;;17.30;99.90;;;;;;4967457;28;20137;-68
2022/06/23 06:48:59;;;;;;;4.50;2.67;;;17.20;99.90;;;;;;4967779;28;20062;-68
2022/06/23 06:51:29;;;;;;;3.33;3.10;;;17.30;99.90;;;;;;4965122;28;20074;-73
2022/06/23 06:54:01;;;;;;;3.22;2.95;;;17.20;99.90;;;;;;4961761;28;20054;-68
2022/06/23 06:56:37;;;;;;;3.60;3.10;;;17.30;99.90;;;;;;4964546;28;20047;-71
2022/06/23 06:59:24;;;;;;;3.13;2.92;;;17.30;99.90;;;;;;4964876;28;20127;-68
2022/06/23 07:01:59;;;;;;;3.10;2.80;;;17.30;99.90;;;;;;4965931;28;20063;-70
2022/06/23 07:04:35;;;;;;;3.47;2.60;;;17.40;99.90;;;;;;4965955;28;20047;-71
2022/06/23 07:07:08;;;;;;;3.80;3.33;;;17.30;99.90;;;;;;4965247;28;20051;-68
2022/06/23 07:10:01;;;;;;;3.83;2.60;;;17.20;99.90;;;;;;4966377;28;20054;-67
2022/06/23 07:12:44;;;;;;;3.55;3.22;;;17.30;99.90;;;;;;4963219;28;20046;-71
2022/06/23 07:15:55;;;;;;;3.22;3.03;;;17.30;99.90;;;;;;4966273;28;20176;-68
2022/06/23 07:18:43;;;;;;;3.40;2.58;;;17.40;99.90;;;;;;4956916;28;20047;-67
2022/06/23 07:21:21;;;;;;;3.67;3.38;;;17.30;99.90;;;;;;4965266;28;20054;-68
2022/06/23 07:23:53;;;;;;;8.90;3.40;;;17.30;99.90;;;;;;4945470;28;20153;-70
2022/06/23 07:26:42;;;;;;;4.93;3.40;;;17.40;99.90;;;;;;4964917;28;20051;-68
2022/06/23 07:29:37;;;;;;;5.47;2.88;;;17.50;99.90;;;;;;4961296;28;20055;-68
2022/06/23 07:32:13;;;;;;;3.72;3.45;;;17.50;99.90;;;;;;4963666;28;20074;-67
2022/06/23 07:34:51;;;;;;;6.93;3.25;;;17.50;99.90;;;;;;4964172;28;20137;-69
2022/06/23 07:37:33;;;;;;;3.65;3.30;;;17.50;99.90;;;;;;4965701;28;20066;-67
2022/06/23 07:40:05;;;;;;;3.75;3.28;;;17.50;99.90;;;;;;4965708;28;20053;-67
2022/06/23 07:42:46;;;;;;;3.05;2.70;;;17.50;99.90;;;;;;4966090;28;20451;-68
2022/06/23 07:45:21;;;;;;;5.50;2.65;;;17.60;99.90;;;;;;4965436;28;20055;-67
2022/06/23 07:47:49;;;;;;;3.63;3.33;;;17.60;99.90;;;;;;4963239;28;20414;-67
2022/06/23 07:50:16;;;;;;;6.03;4.07;;;17.70;99.90;;;;;;4965599;28;20094;-70
2022/06/23 07:52:45;;;;;;;8.18;3.22;;;17.70;99.90;;;;;;4965147;28;20920;-68
2022/06/23 07:55:41;;;;;;;3.63;3.33;;;17.70;99.90;;;;;;4965513;28;20058;-67
2022/06/23 07:58:17;;;;;;;5.55;2.83;;;17.80;99.90;;;;;;4963340;28;20058;-67
2022/06/23 08:00:45;;;;;;;;;;;17.80;99.90;;;;;;4965554;28;20055;-72
2022/06/23 08:03:18;;;;;;;5.80;2.67;;;17.90;99.90;;;;;;4964190;28;19922;-68
2022/06/23 08:05:51;;;;;;;4.88;3.15;;;18.00;99.90;;;;;;4962977;28;20124;-70
2022/06/23 08:08:22;;;;;;;5.20;2.95;;;18.10;99.90;;;;;;4958765;28;20130;-68
2022/06/23 08:13:41;;;;;;;4.40;2.63;;;18.30;99.90;;;;;;4964066;28;20051;-69
2022/06/23 08:19:24;;;;;;;4.78;3.60;;;18.60;99.90;;;;;;4960305;28;20061;-67
2022/06/23 08:21:59;;;;;;;5.18;1.98;;;18.70;99.90;;;;;;4956491;28;20126;-69
2022/06/23 08:24:26;;;;;;;5.78;3.08;;;18.90;99.90;;;;;;4964415;28;20043;-67
2022/06/23 08:27:05;;;;;;;3.72;2.33;;;18.90;99.90;;;;;;4962123;28;20055;-68
2022/06/23 08:29:41;;;;;;;5.03;1.95;;;18.80;99.90;;;;;;4965470;28;20094;-71
2022/06/23 08:32:09;;;;;;;5.70;2.65;;;18.80;99.90;;;;;;4962300;28;20083;-66
2022/06/23 08:34:40;;;;;;;3.25;2.97;;;19.00;99.90;;;;;;4966853;28;20074;-67
2022/06/23 08:37:22;;;;;;;2.67;1.98;;;19.10;99.90;;;;;;4968967;28;20118;-67
2022/06/23 08:39:58;;;;;;;6.82;1.92;;;19.20;99.90;;;;;;4967033;28;20074;-68
2022/06/23 08:42:49;;;;;;;6.72;2.75;;;19.20;99.90;;;;;;4969871;28;20058;-67
2022/06/23 08:45:29;;;;;;;3.78;2.13;;;19.20;99.90;;;;;;4968640;28;20055;-68
2022/06/23 08:48:06;;;;;;;1.95;1.85;;;19.20;99.90;;;;;;4962608;28;20213;-68
2022/06/23 08:50:33;;;;;;;3.05;1.95;;;19.30;99.90;;;;;;4967455;28;20138;-68
2022/06/23 08:53:00;;;;;;;1.73;1.63;;;19.40;99.90;;;;;;4969966;28;20046;-67
2022/06/23 08:55:40;;;;;;;1.67;1.10;;;19.40;99.90;;;;;;4969080;28;20051;-73
2022/06/23 08:58:40;;;;;;;2.90;2.55;;;19.50;99.90;;;;;;4967861;28;20050;-66
2022/06/23 09:01:33;;;;;;;5.38;2.38;;;19.60;99.90;;;;;;4967858;28;20101;-70
2022/06/23 09:04:14;;;;;;;2.58;1.85;;;19.60;99.90;;;;;;4961816;28;20054;-67
2022/06/23 09:06:51;;;;;;;4.00;1.85;;;19.60;99.90;;;;;;4966385;28;20746;-67
2022/06/23 09:09:18;;;;;;;1.73;1.58;;;19.50;99.90;;;;;;4967951;28;20055;-74
2022/06/23 09:12:00;;;;;;;1.42;1.30;;;19.60;99.90;;;;;;4966281;28;20078;-69
2022/06/23 09:14:49;;;;;;;1.85;1.65;;;19.50;99.90;;;;;;4968725;28;20456;-69
2022/06/23 09:17:57;;;;;;;4.13;2.17;;;19.50;99.90;;;;;;4968365;28;20073;-71
2022/06/23 09:20:44;;;;;;;4.18;2.17;;;19.40;99.90;;;;;;4965943;28;20082;-67
2022/06/23 09:23:46;;;;;;;4.10;2.70;;;19.50;99.90;;;;;;4966235;28;20042;-67
2022/06/23 09:26:52;;;;;;;2.25;1.95;;;19.50;99.90;;;;;;4961812;28;20047;-68
2022/06/23 09:29:45;;;;;;;2.50;1.52;;;19.60;99.90;;;;;;4908134;29;20056;-68
2022/06/23 09:32:32;;;;;;;2.35;1.80;;;19.90;99.90;;;;;;4966136;28;20047;-74
2022/06/23 09:35:24;;;;;;;2.95;2.42;;;19.90;99.90;;;;;;4966228;28;20501;-67
2022/06/23 09:37:53;;;;;;;2.83;2.35;;;19.80;99.90;;;;;;4966233;28;20141;-67
2022/06/23 09:40:55;;;;;;;2.58;1.98;;;19.50;99.90;;;;;;4967546;28;20110;-68
2022/06/23 09:43:41;;;;;;;3.78;1.92;;;19.30;99.90;;;;;;4950392;28;20063;-67
2022/06/23 09:46:58;;;;;;;4.28;2.30;;;19.20;99.90;;;;;;4963252;28;20201;-67
2022/06/23 09:49:28;;;;;;;4.32;2.47;;;19.20;99.90;;;;;;4943103;28;20468;-67
2022/06/23 09:52:45;;;;;;;5.60;2.58;;;19.20;99.90;;;;;;4966288;28;20449;-67
2022/06/23 09:55:18;;;;;;;4.45;2.63;;;19.20;99.90;;;;;;4887264;29;20045;-69
2022/06/23 09:58:10;;;;;;;6.05;3.10;;;19.30;99.90;;;;;;4887629;29;20140;-72
2022/06/23 10:00:51;;;;;;;5.03;2.22;;;19.30;99.90;;;;;;4941088;28;20117;-71
2022/06/23 10:03:20;;;;;;;4.00;2.75;;;19.50;99.90;;;;;;4968712;28;20078;-71
2022/06/23 10:06:06;;;;;;;3.05;2.75;;;19.70;99.90;;;;;;4965795;28;20389;-67
2022/06/23 10:08:50;;;;;;;5.60;3.55;;;19.80;99.90;;;;;;4968600;28;20126;-67
2022/06/23 10:11:51;;;;;;;2.97;2.55;;;19.90;99.90;;;;;;4962727;28;20075;-69
2022/06/23 10:14:39;;;;;;;3.67;2.22;;;20.20;99.90;;;;;;4964816;28;20051;-67
2022/06/23 10:17:28;;;;;;;2.92;2.65;;;20.30;99.90;;;;;;4965159;28;20050;-67
2022/06/23 10:20:12;;;;;;;3.50;2.90;;;20.10;99.90;;;;;;4965220;28;20065;-69
2022/06/23 10:23:01;;;;;;;5.40;2.55;;;20.20;99.90;;;;;;4968025;28;20480;-69
2022/06/23 10:25:45;;;;;;;3.17;2.88;;;20.30;99.90;;;;;;4966834;28;20508;-71
2022/06/23 10:28:34;;;;;;;2.10;1.95;;;20.40;99.90;;;;;;4966253;28;20050;-68
2022/06/23 10:31:12;;;;;;;3.20;2.00;;;20.40;99.90;;;;;;4961590;28;20061;-71
2022/06/23 10:34:10;;;;;;;4.15;2.70;;;20.70;99.90;;;;;;4967251;28;20065;-67
2022/06/23 10:36:57;;;;;;;2.17;1.95;;;20.60;99.90;;;;;;4964489;28;20051;-71
2022/06/23 10:39:32;;;;;;;4.72;3.63;;;20.80;99.90;;;;;;4952332;28;20561;-67
2022/06/23 10:42:08;;;;;;;4.22;2.60;;;20.90;99.90;;;;;;4963967;28;20047;-68
2022/06/23 10:44:59;;;;;;;2.50;2.15;;;21.00;99.90;;;;;;4968136;28;20137;-68
2022/06/23 10:47:55;;;;;;;2.78;1.85;;;21.00;99.90;;;;;;4964561;28;20111;-69
2022/06/23 10:50:55;;;;;;;2.63;2.42;;;21.20;99.90;;;;;;4962319;28;20501;-67
2022/06/23 10:53:50;;;;;;;3.42;3.13;;;21.30;99.90;;;;;;4966567;28;20129;-67
2022/06/23 10:56:29;;;;;;;4.93;3.47;;;21.20;99.90;;;;;;4960705;28;20139;-71
2022/06/23 10:59:37;;;;;;;2.50;2.30;;;21.20;99.90;;;;;;4942621;28;20093;-67
2022/06/23 11:02:09;;;;;;;6.07;3.13;;;21.00;99.90;;;;;;4948371;28;20055;-67
2022/06/23 11:05:13;;;;;;;3.13;2.85;;;21.00;99.90;;;;;;4966799;28;20070;-69
2022/06/23 11:07:52;;;;;;;5.15;3.05;;;21.10;99.90;;;;;;4966189;28;20059;-67
2022/06/23 11:10:39;;;;;;;5.45;2.63;;;21.20;99.90;;;;;;4965578;28;20487;-67
2022/06/23 11:13:32;;;;;;;2.88;2.35;;;21.40;99.90;;;;;;4965313;28;20043;-73
2022/06/23 11:16:01;;;;;;;2.65;2.22;;;21.30;99.90;;;;;;4962539;28;20070;-69
2022/06/23 11:18:45;;;;;;;3.40;2.78;;;21.30;99.90;;;;;;4963944;28;20061;-70
2022/06/23 11:21:22;;;;;;;4.68;2.03;;;21.30;99.90;;;;;;4965922;28;20038;-68
2022/06/23 11:24:17;;;;;;;3.42;2.72;;;21.30;99.90;;;;;;4963931;28;20053;-67
2022/06/23 11:26:50;;;;;;;3.97;2.20;;;21.50;99.90;;;;;;4966357;28;20051;-70
2022/06/23 11:29:38;;;;;;;2.75;2.53;;;21.60;99.90;;;;;;4966400;28;20102;-70
2022/06/23 11:32:05;;;;;;;3.70;3.33;;;21.90;99.90;;;;;;4960529;28;20066;-68
2022/06/23 11:34:59;;;;;;;2.72;2.22;;;21.80;99.90;;;;;;4965883;28;20414;-69
2022/06/23 11:38:03;;;;;;;2.55;2.35;;;22.10;99.90;;;;;;4964477;28;20450;-69
2022/06/23 11:41:05;;;;;;;3.47;2.75;;;22.20;99.90;;;;;;4963712;28;20055;-71
2022/06/23 11:43:35;;;;;;;5.38;3.10;;;22.10;99.90;;;;;;4964890;28;20753;-69
2022/06/23 11:46:11;;;;;;;4.47;3.22;;;22.30;99.90;;;;;;4963830;28;20074;-68
2022/06/23 11:48:54;;;;;;;3.05;2.85;;;22.50;99.90;;;;;;4964298;28;20039;-69
2022/06/23 11:51:36;;;;;;;2.53;1.85;;;22.60;99.90;;;;;;4964679;28;20102;-67
2022/06/23 11:54:22;;;;;;;2.58;2.38;;;22.70;99.90;;;;;;4957921;28;20043;-70
2022/06/23 11:57:03;;;;;;;4.75;3.00;;;22.50;99.90;;;;;;4963803;28;20054;-70
2022/06/23 12:00:07;;;;;;;5.60;3.63;;;22.20;99.90;;;;;;4964134;28;20054;-70
2022/06/23 12:03:02;;;;;;;3.35;2.85;;;22.20;99.90;;;;;;4961459;28;20058;-68
2022/06/23 12:05:47;;;;;;;3.38;3.08;;;22.00;99.90;;;;;;4965546;28;20058;-68
2022/06/23 12:08:35;;;;;;;5.30;3.67;;;21.90;99.90;;;;;;4962169;28;20046;-68
2022/06/23 12:11:03;;;;;;;4.38;3.97;;;21.60;99.90;;;;;;4961800;28;20077;-68
2022/06/23 12:13:31;;;;;;;4.60;3.20;;;21.70;99.90;;;;;;4965615;28;20066;-67
2022/06/23 12:15:58;;;;;;;3.45;2.78;;;21.80;99.90;;;;;;4961533;28;21243;-68
2022/06/23 12:18:32;;;;;;;3.45;3.05;;;21.90;99.90;;;;;;4961662;28;20122;-67
2022/06/23 12:21:30;;;;;;;3.13;2.92;;;21.80;99.90;;;;;;4965057;28;20054;-67
2022/06/23 12:24:12;;;;;;;4.90;3.08;;;21.80;99.90;;;;;;4959274;28;20561;-68
2022/06/23 12:27:00;;;;;;;3.45;3.08;;;21.80;99.90;;;;;;4964249;28;20054;-68
2022/06/23 12:29:32;;;;;;;3.38;3.17;;;21.80;99.90;;;;;;4964519;28;20086;-69
2022/06/23 12:32:20;;;;;;;3.20;2.90;;;21.80;99.90;;;;;;4959448;28;20106;-68
2022/06/23 12:35:09;;;;;;;4.53;3.03;;;21.80;99.90;;;;;;4964598;28;20157;-69
2022/06/23 12:38:14;;;;;;;3.17;2.90;;;22.00;99.90;;;;;;4961076;28;20050;-70
2022/06/23 12:40:45;;;;;;;2.85;2.65;;;22.30;99.90;;;;;;4923304;28;20051;-68
2022/06/23 12:43:35;;;;;;;3.25;2.95;;;22.60;99.90;;;;;;4965129;28;20544;-69
2022/06/23 12:46:13;;;;;;;3.30;2.75;;;22.80;99.90;;;;;;4944112;28;20050;-68
2022/06/23 12:49:01;;;;;;;5.45;2.80;;;22.80;99.90;;;;;;4949630;28;20166;-67
2022/06/23 12:51:49;;;;;;;3.70;3.38;;;22.80;99.90;;;;;;4964442;28;20053;-67
2022/06/23 12:54:24;;;;;;;4.13;2.90;;;22.80;99.90;;;;;;4963126;28;20470;-69
2022/06/23 12:57:16;;;;;;;2.70;2.50;;;22.80;99.90;;;;;;4963104;28;20394;-68
2022/06/23 13:00:08;;;;;;;3.28;2.97;;;23.00;99.90;;;;;;4962680;28;20047;-70
2022/06/23 13:02:41;;;;;;;2.60;2.42;;;23.10;99.90;;;;;;4963898;28;20051;-69
2022/06/23 13:05:27;;;;;;;4.78;3.28;;;23.30;99.90;;;;;;4964119;28;20087;-69
2022/06/23 13:08:04;;;;;;;3.20;2.97;;;23.60;99.90;;;;;;4962033;28;20121;-67
2022/06/23 13:10:50;;;;;;;4.60;3.53;;;23.60;99.90;;;;;;4964526;28;20468;-68
2022/06/23 13:13:32;;;;;;;2.97;2.63;;;23.50;99.90;;;;;;4957670;28;20118;-67
2022/06/23 13:16:22;;;;;;;3.13;2.90;;;23.60;99.90;;;;;;4962266;28;20051;-70
2022/06/23 13:19:05;;;;;;;3.38;2.75;;;23.60;99.90;;;;;;4964381;28;20417;-69
2022/06/23 13:21:35;;;;;;;3.25;2.95;;;23.70;99.90;;;;;;4964917;28;20043;-70
2022/06/23 13:24:10;;;;;;;5.72;2.55;;;23.70;99.90;;;;;;4966247;28;20051;-67
2022/06/23 13:26:51;;;;;;;4.07;3.78;;;23.90;99.90;;;;;;4966917;28;20043;-74
2022/06/23 13:29:18;;;;;;;4.00;3.15;;;24.10;99.90;;;;;;4967300;28;20489;-68
2022/06/23 13:31:51;;;;;;;3.08;2.80;;;24.00;99.90;;;;;;4965577;28;20079;-73
2022/06/23 13:34:28;;;;;;;3.58;2.42;;;24.00;99.90;;;;;;4964104;28;20054;-68
2022/06/23 13:37:14;;;;;;;3.20;2.67;;;24.00;99.90;;;;;;4967733;28;20469;-67
2022/06/23 13:39:56;;;;;;;4.50;2.70;;;24.00;99.90;;;;;;4967324;28;20050;-74
2022/06/23 13:42:52;;;;;;;3.10;2.42;;;24.10;99.90;;;;;;4965818;28;20066;-73
2022/06/23 13:45:27;;;;;;;3.35;2.17;;;24.20;99.90;;;;;;4965224;28;20456;-70
2022/06/23 13:48:02;;;;;;;2.80;2.08;;;24.40;99.90;;;;;;4961636;28;20070;-69
2022/06/23 13:50:44;;;;;;;2.20;2.10;;;24.50;99.90;;;;;;4967464;28;20046;-68
2022/06/23 13:53:36;;;;;;;4.70;2.17;;;24.60;99.90;;;;;;4965241;28;20134;-67
2022/06/23 13:56:25;;;;;;;5.30;2.25;;;24.40;99.90;;;;;;4962350;28;20089;-73
2022/06/23 13:59:00;;;;;;;2.78;2.38;;;24.60;99.90;;;;;;4961643;28;20409;-71
2022/06/23 14:01:51;;;;;;;3.17;2.42;;;24.80;99.90;;;;;;4965423;28;20401;-71
2022/06/23 14:04:30;;;;;;;2.97;2.40;;;24.90;99.90;;;;;;4962987;28;20413;-69
2022/06/23 14:07:10;;;;;;;2.58;1.88;;;24.80;99.90;;;;;;4961734;28;20050;-71
2022/06/23 14:09:47;;;;;;;;;;;25.00;99.90;;;;;;4966238;28;20410;-71
2022/06/23 14:12:37;;;;;;;4.47;2.30;;;25.10;99.90;;;;;;4965711;28;19977;-67
2022/06/23 14:15:32;;;;;;;5.13;3.10;;;25.20;99.90;;;;;;4960068;28;20081;-68